aviador You're here:

KPDT Decoded Metar

PENDLETON in OR, USA
Report Time2018-01-23 03:53:00
UTC Time2018-01-23 04:01:10
Flight Rules vfr VFR
Wind180° at 07 kt
W.Decomp.*RWY 16: 7.0 kt HW 0.5 kt RCW
RWY 11: 4.1 kt HW 5.7 kt RCW
RWY 25: 0.5 kt HW 7 kt LCW
W.Rank180° ranks 16
Current wind is above 180° avg. (6.0)
Visibility9999 m
Phenomena:N/A
Clouds:N/A
Expected CloudBase > 1,200 ft AGL from Temp-Dew spread
CeilingNone
Temp02°C (ISA -10)
Dew Point-1°C (81% RH)
AAT-2.6°C
QNH1025 hPa
Density Alt-20 ft
Elevation1,516 ft
Report Wrong Elevation
Raw Report
METAR KPDT 230353Z 18007KT 10SM CLR 02/M01 A3028 RMK AO2 SLP260
T00221006=

Extra information for KPDT:More info

Metar Taf Metar & Taf Last 4 Metars F.Rules Stats Wind Profile Meteogram Temp Stats Airport Information Weather charts Add Link Nearby VenuesMetar ALERT Operation Metar Decoded Social comments

AIRNAV info for KPDT